Time;durP1;ratioP1;P1;durP2;ratioP2;P2;SDS_P1;SDS_P2;PMS_P1;PMS_P2;Temp;Humidity;BMP_temperature;BMP_pressure;BME280_temperature;BME280_humidity;BME280_pressure;Samples;Min_cycle;Max_cycle;Signal;HPM_P1;HPM_P2
2022/09/08 00:01:15;;;;;;;14.87;3.40;;;19.50;99.90;;;;;;5013579;28;21057;-64
2022/09/08 00:03:43;;;;;;;17.97;3.00;;;;;;;;;;5012290;28;20500;-65
2022/09/08 00:06:13;;;;;;;11.17;3.50;;;19.60;99.90;;;;;;5025062;28;20492;-69
2022/09/08 00:08:40;;;;;;;11.23;3.70;;;;;;;;;;5025065;28;20480;-67
2022/09/08 00:11:09;;;;;;;6.77;2.47;;;19.60;99.90;;;;;;5022151;28;20476;-65
2022/09/08 00:13:39;;;;;;;20.33;5.77;;;19.60;99.90;;;;;;5031505;28;20939;-66
2022/09/08 00:16:07;;;;;;;9.10;3.10;;;19.50;99.90;;;;;;5030344;28;20551;-64
2022/09/08 00:18:34;;;;;;;18.17;5.53;;;19.60;99.90;;;;;;5032440;28;20518;-66
2022/09/08 00:21:01;;;;;;;23.77;3.97;;;19.60;99.90;;;;;;5022212;28;20802;-65
2022/09/08 00:23:30;;;;;;;19.13;9.10;;;;;;;;;;5020086;28;20494;-66
2022/09/08 00:25:57;;;;;;;15.70;5.00;;;;;;;;;;5039414;28;20976;-65
2022/09/08 00:28:24;;;;;;;33.30;7.70;;;19.60;99.90;;;;;;5029924;28;20474;-63
2022/09/08 00:30:51;;;;;;;19.83;6.70;;;19.60;99.90;;;;;;5033120;28;20706;-64
2022/09/08 00:33:17;;;;;;;12.80;5.37;;;19.60;99.90;;;;;;5027006;28;20530;-63
2022/09/08 00:35:44;;;;;;;11.97;2.30;;;19.60;99.90;;;;;;5033265;28;20487;-64
2022/09/08 00:38:12;;;;;;;10.03;3.17;;;19.60;99.90;;;;;;5034394;28;20499;-67
2022/09/08 00:40:45;;;;;;;25.97;3.40;;;19.60;99.90;;;;;;5031476;28;20624;-64
2022/09/08 00:43:13;;;;;;;23.23;2.80;;;;;;;;;;5034017;28;20872;-67
2022/09/08 00:45:48;;;;;;;18.43;3.70;;;19.50;99.90;;;;;;5033000;28;20484;-64
2022/09/08 00:48:17;;;;;;;12.80;3.73;;;;;;;;;;5031087;28;20484;-65
2022/09/08 00:50:45;;;;;;;14.43;2.83;;;;;;;;;;5012580;28;20851;-66
2022/09/08 00:53:16;;;;;;;23.73;4.83;;;19.50;99.90;;;;;;5032661;28;20477;-69
2022/09/08 00:55:44;;;;;;;24.73;4.60;;;19.50;99.90;;;;;;5020046;28;20484;-66
2022/09/08 00:58:12;;;;;;;10.73;4.40;;;19.40;99.90;;;;;;5029204;28;20476;-67
2022/09/08 01:00:40;;;;;;;26.30;4.50;;;;;;;;;;5018139;28;20472;-66
2022/09/08 01:03:08;;;;;;;15.37;2.73;;;19.30;99.90;;;;;;5049292;28;20884;-65
2022/09/08 01:05:47;;;;;;;17.93;6.53;;;19.30;99.90;;;;;;5020840;28;20909;-66
2022/09/08 01:13:58;;;;;;;16.87;4.60;;;19.40;99.90;;;;;;5031602;28;20878;-66
2022/09/08 01:16:25;;;;;;;21.03;6.77;;;19.40;99.90;;;;;;5025590;28;20503;-68
2022/09/08 01:18:53;;;;;;;28.90;4.20;;;19.30;99.90;;;;;;5033194;28;20495;-66
2022/09/08 01:22:03;;;;;;;9.27;3.50;;;19.30;99.90;;;;;;5033746;28;20484;-66
2022/09/08 01:24:39;;;;;;;14.60;8.60;;;19.30;99.90;;;;;;5021052;28;20463;-65
2022/09/08 01:27:12;;;;;;;12.17;2.87;;;19.30;99.90;;;;;;5052402;28;20483;-69
2022/09/08 01:29:41;;;;;;;16.03;3.93;;;19.20;99.90;;;;;;5047763;28;20828;-65
2022/09/08 01:32:10;;;;;;;7.50;4.10;;;19.20;99.90;;;;;;5051804;28;20483;-65
2022/09/08 01:34:41;;;;;;;24.50;3.83;;;19.10;99.90;;;;;;5049784;28;20479;-65
2022/09/08 01:37:07;;;;;;;10.13;3.47;;;19.00;99.90;;;;;;5040424;28;21028;-68
2022/09/08 01:39:34;;;;;;;8.70;4.53;;;;;;;;;;5048469;28;20487;-66
2022/09/08 01:42:01;;;;;;;11.30;3.20;;;18.90;99.90;;;;;;5051963;28;20471;-67
2022/09/08 01:44:29;;;;;;;22.63;10.00;;;18.90;99.90;;;;;;5046439;28;20653;-67
2022/09/08 01:46:57;;;;;;;26.97;6.13;;;18.90;99.90;;;;;;5049388;28;20542;-67
2022/09/08 01:49:23;;;;;;;25.17;7.70;;;19.00;99.90;;;;;;5050539;28;20491;-69
2022/09/08 01:51:51;;;;;;;14.60;4.33;;;18.90;99.90;;;;;;5055323;28;20475;-66
2022/09/08 01:54:17;;;;;;;15.13;5.57;;;18.90;99.90;;;;;;5037159;28;20477;-67
2022/09/08 01:56:44;;;;;;;13.17;3.40;;;18.80;99.90;;;;;;5043204;28;20484;-68
2022/09/08 01:59:11;;;;;;;6.87;3.47;;;18.70;99.90;;;;;;5047951;28;20553;-65
2022/09/08 02:01:39;;;;;;;11.40;3.40;;;18.60;99.90;;;;;;5050353;28;20566;-64
2022/09/08 02:04:06;;;;;;;29.20;5.00;;;;;;;;;;5043748;28;20492;-66
2022/09/08 02:06:33;;;;;;;31.33;9.47;;;;;;;;;;5045630;28;20722;-68
2022/09/08 02:09:00;;;;;;;16.43;5.27;;;;;;;;;;5049908;28;20874;-68
2022/09/08 02:11:27;;;;;;;27.57;10.50;;;;;;;;;;5037407;28;20484;-66
2022/09/08 02:13:54;;;;;;;10.90;4.20;;;18.60;99.90;;;;;;5034917;28;20529;-64
2022/09/08 02:16:20;;;;;;;16.13;5.30;;;18.80;99.90;;;;;;5043148;28;20487;-68
2022/09/08 02:18:48;;;;;;;8.90;3.57;;;18.80;99.90;;;;;;5076573;28;20531;-65
2022/09/08 02:21:17;;;;;;;14.73;4.53;;;;;;;;;;5065831;28;20527;-64
2022/09/08 02:23:45;;;;;;;27.07;4.47;;;18.70;99.90;;;;;;5047712;28;20483;-70
2022/09/08 02:26:16;;;;;;;26.80;4.90;;;18.80;99.90;;;;;;5057127;28;20491;-63
2022/09/08 02:28:42;;;;;;;10.10;3.50;;;18.80;99.90;;;;;;5058982;28;20492;-67
2022/09/08 02:31:10;;;;;;;17.47;3.70;;;;;;;;;;5055661;28;21526;-65
2022/09/08 02:33:39;;;;;;;14.03;4.60;;;18.70;99.90;;;;;;5073800;28;20578;-65
2022/09/08 02:36:08;;;;;;;19.93;4.30;;;18.60;99.90;;;;;;5069584;28;20478;-68
2022/09/08 02:38:35;;;;;;;23.00;7.23;;;18.50;99.90;;;;;;5053054;28;20470;-69
2022/09/08 02:41:01;;;;;;;16.23;5.43;;;18.50;99.90;;;;;;5075789;28;20791;-68
2022/09/08 02:43:29;;;;;;;13.60;8.23;;;18.60;99.90;;;;;;5058225;28;20866;-68
2022/09/08 02:45:56;;;;;;;15.83;4.13;;;;;;;;;;5060019;28;20831;-68
2022/09/08 02:48:23;;;;;;;11.50;4.10;;;;;;;;;;5066148;28;20478;-64
2022/09/08 02:50:50;;;;;;;9.70;4.00;;;18.40;99.90;;;;;;5047811;28;20892;-64
2022/09/08 02:53:18;;;;;;;17.03;4.30;;;18.40;99.90;;;;;;5057469;28;20510;-69
2022/09/08 02:55:45;;;;;;;16.93;4.20;;;;;;;;;;5053703;28;20482;-63
2022/09/08 02:58:13;;;;;;;18.57;4.70;;;18.30;99.90;;;;;;5063558;28;20490;-63
2022/09/08 03:00:40;;;;;;;19.87;3.97;;;;;;;;;;5060916;28;20972;-66
2022/09/08 03:03:07;;;;;;;14.20;3.53;;;;;;;;;;5060695;28;20479;-64
2022/09/08 03:05:34;;;;;;;10.93;5.40;;;18.40;99.90;;;;;;5053547;28;20487;-68
2022/09/08 03:08:03;;;;;;;13.27;3.27;;;18.40;99.90;;;;;;5065766;28;20527;-65
2022/09/08 03:10:32;;;;;;;27.37;10.37;;;18.40;99.90;;;;;;5074261;28;20520;-65
2022/09/08 03:12:59;;;;;;;13.57;4.63;;;18.50;99.90;;;;;;5057833;28;21023;-65
2022/09/08 03:15:27;;;;;;;31.80;9.50;;;;;;;;;;5056169;28;20486;-68
2022/09/08 03:17:54;;;;;;;10.93;4.40;;;18.60;99.90;;;;;;5060806;28;20529;-65
2022/09/08 03:20:22;;;;;;;8.27;3.70;;;18.50;99.90;;;;;;5055765;28;20761;-63
2022/09/08 03:22:49;;;;;;;15.97;4.40;;;;;;;;;;5048758;28;20472;-64
2022/09/08 03:25:17;;;;;;;21.67;4.10;;;;;;;;;;5051955;28;20723;-64
2022/09/08 03:27:45;;;;;;;13.43;2.70;;;18.80;99.90;;;;;;5055911;28;20987;-63
2022/09/08 03:30:14;;;;;;;12.77;3.20;;;18.80;99.90;;;;;;5062402;28;20491;-63
2022/09/08 03:32:42;;;;;;;8.50;2.47;;;18.70;99.90;;;;;;5059557;28;20848;-65
2022/09/08 03:35:11;;;;;;;19.10;2.80;;;;;;;;;;5040693;28;20958;-64
2022/09/08 03:37:38;;;;;;;9.43;3.60;;;18.50;99.90;;;;;;5073213;28;20486;-63
2022/09/08 03:40:06;;;;;;;14.40;3.33;;;;;;;;;;5056326;28;21008;-65
2022/09/08 03:42:34;;;;;;;15.80;4.93;;;18.10;99.90;;;;;;5061035;28;20477;-63
2022/09/08 03:45:03;;;;;;;14.70;3.53;;;18.00;99.90;;;;;;5053864;28;20482;-64
2022/09/08 03:47:30;;;;;;;11.87;5.70;;;17.90;99.90;;;;;;5072350;28;20516;-66
2022/09/08 03:49:57;;;;;;;14.47;3.13;;;17.80;99.90;;;;;;5052124;28;20483;-65
2022/09/08 03:52:24;;;;;;;14.57;6.17;;;17.60;99.90;;;;;;5049627;28;20483;-65
2022/09/08 03:54:51;;;;;;;15.60;5.60;;;15.40;99.90;;;;;;5065595;28;20616;-65
2022/09/08 03:57:21;;;;;;;23.70;4.50;;;17.60;99.90;;;;;;5056083;28;20481;-62
2022/09/08 03:59:48;;;;;;;8.80;3.53;;;17.50;99.90;;;;;;5054639;28;20476;-64
2022/09/08 04:02:17;;;;;;;14.30;5.10;;;17.60;99.90;;;;;;5034291;28;20546;-64
2022/09/08 04:04:44;;;;;;;17.10;2.93;;;17.50;99.90;;;;;;5048474;28;20494;-66
2022/09/08 04:07:11;;;;;;;11.90;3.90;;;17.30;99.90;;;;;;5042509;28;20476;-66
2022/09/08 04:09:38;;;;;;;12.43;4.70;;;17.40;99.90;;;;;;5042296;28;20853;-65
2022/09/08 04:12:05;;;;;;;19.50;3.90;;;17.30;99.90;;;;;;5033749;28;20545;-66
2022/09/08 04:14:32;;;;;;;14.77;6.90;;;17.40;99.90;;;;;;5032101;28;20511;-66
2022/09/08 04:16:59;;;;;;;24.80;5.47;;;17.40;99.90;;;;;;5034884;28;20568;-64
2022/09/08 04:19:28;;;;;;;38.50;10.57;;;17.30;99.90;;;;;;5032614;28;20888;-65
2022/09/08 04:21:55;;;;;;;16.13;4.03;;;17.30;99.90;;;;;;5038611;28;20937;-63
2022/09/08 04:24:22;;;;;;;10.73;5.43;;;17.30;99.90;;;;;;5044642;28;20487;-67
2022/09/08 04:26:48;;;;;;;17.43;3.00;;;17.20;99.90;;;;;;5038780;28;20567;-66
2022/09/08 04:29:15;;;;;;;13.90;5.53;;;;;;;;;;5026093;28;20471;-66
2022/09/08 04:31:42;;;;;;;18.20;4.40;;;17.20;99.90;;;;;;5071225;28;20706;-65
2022/09/08 04:34:13;;;;;;;28.77;4.20;;;17.20;99.90;;;;;;5053858;28;20491;-64
2022/09/08 04:36:43;;;;;;;14.40;4.80;;;17.10;99.90;;;;;;5040315;28;21088;-65
2022/09/08 04:39:10;;;;;;;8.03;5.00;;;17.10;99.90;;;;;;5006725;28;20491;-67
2022/09/08 04:41:38;;;;;;;16.07;5.40;;;17.10;99.90;;;;;;5027868;28;20488;-63
2022/09/08 04:44:06;;;;;;;13.90;4.73;;;17.00;99.90;;;;;;5000626;28;20468;-65
2022/09/08 04:46:34;;;;;;;22.37;6.73;;;17.00;99.90;;;;;;5019617;28;21063;-63
2022/09/08 04:49:01;;;;;;;13.77;5.43;;;16.90;99.90;;;;;;5043893;28;21033;-65
2022/09/08 04:51:29;;;;;;;21.30;9.83;;;16.90;99.90;;;;;;5018282;28;20534;-65
2022/09/08 04:53:59;;;;;;;30.07;5.53;;;16.90;99.90;;;;;;5031169;28;20473;-65
2022/09/08 04:56:26;;;;;;;27.90;6.17;;;;;;;;;;5027595;28;20534;-63
2022/09/08 04:58:54;;;;;;;20.03;5.97;;;16.90;99.90;;;;;;5038582;28;20479;-65
2022/09/08 05:01:23;;;;;;;25.77;5.47;;;16.90;99.90;;;;;;5034163;28;20472;-64
2022/09/08 05:03:52;;;;;;;26.60;6.93;;;16.80;99.90;;;;;;5029478;28;20483;-66
2022/09/08 05:06:19;;;;;;;23.93;8.33;;;16.90;99.90;;;;;;5042472;28;20491;-66
2022/09/08 05:08:48;;;;;;;33.43;6.23;;;16.90;99.90;;;;;;5044460;28;20887;-65
2022/09/08 05:11:17;;;;;;;24.40;6.30;;;;;;;;;;5050175;28;20972;-65
2022/09/08 05:13:44;;;;;;;20.93;6.43;;;16.90;99.90;;;;;;5039493;28;20491;-67
2022/09/08 05:16:13;;;;;;;20.87;5.73;;;;;;;;;;5045090;28;20561;-63
2022/09/08 05:18:40;;;;;;;35.17;7.47;;;;;;;;;;5029583;28;20488;-65
2022/09/08 05:21:08;;;;;;;21.97;5.87;;;;;;;;;;5017495;28;20518;-62
2022/09/08 05:23:35;;;;;;;24.10;7.33;;;16.90;99.90;;;;;;5024903;28;20874;-67
2022/09/08 05:26:04;;;;;;;29.37;7.80;;;;;;;;;;5046358;28;20760;-67
2022/09/08 05:28:35;;;;;;;36.30;12.13;;;17.00;99.90;;;;;;5051907;28;20482;-65
2022/09/08 05:31:02;;;;;;;28.50;6.10;;;;;;;;;;5056434;28;20567;-64
2022/09/08 05:33:31;;;;;;;27.27;10.87;;;17.00;99.90;;;;;;5053710;28;20483;-67
2022/09/08 05:35:57;;;;;;;20.50;5.50;;;17.00;99.90;;;;;;5042720;28;20586;-65
2022/09/08 05:38:24;;;;;;;27.73;8.30;;;;;;;;;;5036238;28;20472;-67
2022/09/08 05:40:52;;;;;;;26.73;5.20;;;;;;;;;;5033212;28;20514;-62
2022/09/08 05:43:19;;;;;;;20.67;6.17;;;;;;;;;;5028346;28;20473;-71
2022/09/08 05:45:49;;;;;;;40.90;6.27;;;17.20;99.90;;;;;;5053053;28;20835;-67
2022/09/08 05:48:16;;;;;;;25.73;8.00;;;17.10;99.90;;;;;;5053898;28;20950;-63
2022/09/08 05:50:43;;;;;;;35.00;5.10;;;;;;;;;;5032454;28;20492;-65
2022/09/08 05:53:10;;;;;;;31.57;6.10;;;;;;;;;;5047118;28;20475;-66
2022/09/08 05:55:37;;;;;;;33.40;8.23;;;;;;;;;;5040365;28;20858;-71
2022/09/08 05:58:04;;;;;;;34.13;6.57;;;17.30;99.90;;;;;;5034709;28;20479;-67
2022/09/08 06:00:31;;;;;;;25.60;7.93;;;17.30;99.90;;;;;;5066548;28;20983;-64
2022/09/08 06:02:59;;;;;;;18.73;4.70;;;17.30;99.90;;;;;;5056752;28;20464;-67
2022/09/08 06:05:26;;;;;;;38.77;7.37;;;;;;;;;;5057164;28;20485;-65
2022/09/08 06:07:53;;;;;;;29.70;7.30;;;17.30;99.90;;;;;;5056852;28;20553;-64
2022/09/08 06:10:20;;;;;;;25.33;6.73;;;;;;;;;;5057339;28;21065;-68
2022/09/08 06:12:47;;;;;;;25.33;3.73;;;17.20;99.90;;;;;;5033685;28;20490;-63
2022/09/08 06:15:14;;;;;;;16.63;4.33;;;;;;;;;;5032113;28;20743;-70
2022/09/08 06:17:41;;;;;;;18.00;4.10;;;17.30;99.90;;;;;;5036290;28;20491;-71
2022/09/08 06:20:10;;;;;;;24.17;4.60;;;;;;;;;;5032686;28;20483;-64
2022/09/08 06:22:37;;;;;;;27.87;4.97;;;;;;;;;;5042970;28;20492;-70
2022/09/08 06:25:04;;;;;;;22.93;4.77;;;;;;;;;;5041462;28;20480;-63
2022/09/08 06:27:35;;;;;;;28.30;5.03;;;;;;;;;;5034938;28;20479;-65
2022/09/08 06:30:03;;;;;;;31.33;4.80;;;;;;;;;;5038906;28;20888;-65
2022/09/08 06:32:35;;;;;;;60.50;12.80;;;17.20;99.90;;;;;;5016041;28;21020;-67
2022/09/08 06:35:07;;;;;;;34.43;7.03;;;;;;;;;;5041647;28;20746;-63
2022/09/08 06:37:43;;;;;;;16.77;6.20;;;17.40;99.90;;;;;;5035183;28;20852;-67
2022/09/08 06:40:16;;;;;;;31.77;5.33;;;17.50;99.90;;;;;;5047281;28;20852;-67
2022/09/08 06:42:47;;;;;;;24.63;3.60;;;;;;;;;;5045870;28;20472;-71
2022/09/08 06:45:22;;;;;;;25.27;4.13;;;;;;;;;;5052485;28;20559;-70
2022/09/08 06:47:58;;;;;;;33.73;4.87;;;17.60;99.90;;;;;;5027781;28;21049;-68
2022/09/08 06:50:26;;;;;;;29.53;9.80;;;17.40;99.90;;;;;;5038617;28;20480;-65
2022/09/08 06:52:56;;;;;;;33.97;5.17;;;17.40;99.90;;;;;;5040160;28;20472;-67
2022/09/08 06:55:34;;;;;;;27.00;7.00;;;17.50;99.90;;;;;;5042743;28;20476;-63
2022/09/08 06:58:06;;;;;;;19.57;3.60;;;;;;;;;;5030422;28;20480;-66
2022/09/08 07:00:42;;;;;;;24.57;6.73;;;17.40;99.90;;;;;;5034266;28;20488;-65
2022/09/08 07:03:16;;;;;;;31.30;5.20;;;17.40;99.90;;;;;;5025123;28;20542;-65
2022/09/08 07:05:51;;;;;;;19.80;3.03;;;;;;;;;;5035189;28;20515;-67
2022/09/08 07:08:31;;;;;;;23.93;5.53;;;17.60;99.90;;;;;;5032491;28;21567;-68
2022/09/08 07:11:00;;;;;;;23.37;5.37;;;17.70;99.90;;;;;;5017546;28;21013;-66
2022/09/08 07:13:36;;;;;;;48.93;12.93;;;17.80;99.90;;;;;;5067478;28;20830;-66
2022/09/08 07:16:11;;;;;;;16.03;3.90;;;17.90;99.90;;;;;;5058488;28;20728;-66
2022/09/08 07:18:41;;;;;;;27.40;7.33;;;;;;;;;;5043151;28;20968;-62
2022/09/08 07:21:16;;;;;;;35.40;5.20;;;;;;;;;;5038310;28;20481;-68
2022/09/08 07:23:45;;;;;;;26.00;5.07;;;18.00;99.90;;;;;;5026088;28;20985;-66
2022/09/08 07:26:17;;;;;;;29.07;5.07;;;;;;;;;;5036679;28;20503;-65
2022/09/08 07:28:47;;;;;;;29.10;6.50;;;;;;;;;;5018156;28;20491;-65
2022/09/08 07:31:20;;;;;;;24.37;5.10;;;18.00;99.90;;;;;;5018165;28;20475;-64
2022/09/08 07:33:52;;;;;;;16.93;3.20;;;18.00;99.90;;;;;;5028345;28;20483;-60
2022/09/08 07:36:27;;;;;;;24.77;4.60;;;18.20;99.90;;;;;;5029894;28;20927;-62
2022/09/08 07:38:56;;;;;;;44.87;5.93;;;;;;;;;;5010983;28;20689;-64
2022/09/08 07:41:29;;;;;;;33.43;6.70;;;16.70;99.90;;;;;;5015876;28;21256;-62
2022/09/08 07:43:59;;;;;;;15.70;4.00;;;18.20;99.90;;;;;;5034769;28;20786;-63
2022/09/08 07:46:50;;;;;;;39.77;7.17;;;;;;;;;;5029153;28;20507;-63
2022/09/08 07:49:25;;;;;;;41.80;5.20;;;18.20;99.90;;;;;;4984396;28;20480;-63
2022/09/08 07:52:00;;;;;;;18.90;4.20;;;18.20;99.90;;;;;;5007180;28;20480;-64
2022/09/08 07:54:48;;;;;;;32.10;5.43;;;18.10;99.90;;;;;;5016676;28;20475;-65
2022/09/08 07:57:19;;;;;;;19.23;3.50;;;18.40;99.90;;;;;;5033077;28;20492;-67
2022/09/08 07:59:53;;;;;;;20.73;3.93;;;18.50;99.90;;;;;;5035810;28;20476;-66
2022/09/08 08:02:27;;;;;;;49.30;9.17;;;;;;;;;;5053027;28;20501;-67
2022/09/08 08:05:03;;;;;;;33.37;5.80;;;18.80;99.90;;;;;;5040156;28;20479;-62
2022/09/08 08:07:38;;;;;;;29.30;5.63;;;18.90;99.90;;;;;;5047172;28;20566;-70
2022/09/08 08:10:12;;;;;;;17.00;3.10;;;;;;;;;;5052533;28;20471;-63
2022/09/08 08:12:47;;;;;;;30.47;5.50;;;19.00;99.80;;;;;;5051142;28;21035;-65
2022/09/08 08:15:20;;;;;;;24.10;3.70;;;19.10;99.90;;;;;;5051320;28;20796;-70
2022/09/08 08:17:50;;;;;;;25.87;4.70;;;;;;;;;;5042429;28;20523;-65
2022/09/08 08:20:23;;;;;;;19.80;4.67;;;;;;;;;;5047053;28;20485;-67
2022/09/08 08:23:14;;;;;;;28.80;4.10;;;19.50;99.20;;;;;;5031555;28;20480;-64
2022/09/08 08:25:47;;;;;;;19.60;2.67;;;;;;;;;;5016948;28;20473;-67
2022/09/08 08:28:18;;;;;;;9.80;2.80;;;19.90;99.40;;;;;;5027749;28;20780;-65
2022/09/08 08:30:50;;;;;;;12.33;3.10;;;;;;;;;;5020891;28;20507;-69
2022/09/08 08:33:21;;;;;;;11.47;3.83;;;19.80;98.20;;;;;;5020792;28;20874;-65
2022/09/08 08:35:51;;;;;;;10.40;4.10;;;19.70;98.40;;;;;;5005526;28;21036;-70
2022/09/08 08:38:20;;;;;;;15.20;5.83;;;;;;;;;;5004174;28;20853;-63
2022/09/08 08:40:56;;;;;;;36.63;4.00;;;19.70;98.30;;;;;;4995444;28;20485;-68
2022/09/08 08:43:55;;;;;;;21.40;7.17;;;19.70;99.00;;;;;;5008216;28;21027;-67
2022/09/08 08:46:30;;;;;;;9.90;4.73;;;;;;;;;;5020983;28;20486;-70
2022/09/08 08:49:03;;;;;;;4.43;3.50;;;;;;;;;;5032686;28;20489;-65
2022/09/08 08:51:59;;;;;;;20.87;4.50;;;19.80;97.60;;;;;;5028672;28;20899;-70
2022/09/08 08:54:44;;;;;;;14.90;4.10;;;19.60;97.40;;;;;;5046122;28;20484;-66
2022/09/08 08:57:25;;;;;;;11.63;4.33;;;19.60;98.30;;;;;;5048712;28;20493;-68
2022/09/08 09:00:05;;;;;;;11.63;4.80;;;19.60;99.10;;;;;;5050214;28;20491;-70
2022/09/08 09:02:47;;;;;;;29.03;7.33;;;;;;;;;;5049214;28;20475;-68
2022/09/08 09:05:25;;;;;;;19.07;5.20;;;19.60;98.30;;;;;;5049121;28;20528;-66
2022/09/08 09:08:12;;;;;;;22.53;6.60;;;19.80;99.00;;;;;;5052678;28;20522;-69
2022/09/08 09:10:49;;;;;;;11.33;4.80;;;20.00;98.40;;;;;;5032511;28;20542;-62
2022/09/08 09:13:27;;;;;;;21.27;5.40;;;;;;;;;;5028487;28;20698;-66
2022/09/08 09:16:17;;;;;;;11.30;4.63;;;20.40;98.10;;;;;;5038872;28;20479;-67
2022/09/08 09:19:07;;;;;;;27.17;4.90;;;20.50;98.30;;;;;;5039544;28;20475;-64
2022/09/08 09:21:40;;;;;;;14.23;6.03;;;;;;;;;;5035117;28;20495;-63
2022/09/08 09:24:13;;;;;;;30.93;5.10;;;;;;;;;;5039171;28;20475;-65
2022/09/08 09:26:46;;;;;;;11.83;4.23;;;;;;;;;;5049955;28;20520;-62
2022/09/08 09:29:19;;;;;;;29.80;6.13;;;20.50;97.30;;;;;;5052388;28;20526;-62
2022/09/08 09:32:14;;;;;;;17.30;5.97;;;;;;;;;;5050889;28;20527;-63
2022/09/08 09:35:14;;;;;;;6.93;3.60;;;20.40;96.90;;;;;;5051438;28;20509;-66
2022/09/08 09:38:22;;;;;;;5.87;3.70;;;20.40;97.40;;;;;;5050810;28;20505;-62
2022/09/08 09:41:11;;;;;;;13.40;6.57;;;20.40;97.80;;;;;;4980679;28;20560;-63
2022/09/08 09:43:56;;;;;;;10.53;6.10;;;20.70;97.00;;;;;;5036149;28;20483;-63
2022/09/08 09:46:51;;;;;;;26.40;7.87;;;20.80;96.90;;;;;;5013320;28;20514;-64
2022/09/08 09:49:34;;;;;;;14.03;5.57;;;20.90;96.40;;;;;;5042956;28;20777;-67
2022/09/08 09:52:16;;;;;;;15.43;6.40;;;20.80;95.60;;;;;;5026540;28;20483;-63
2022/09/08 09:54:56;;;;;;;22.03;4.97;;;;;;;;;;5010886;28;20483;-64
2022/09/08 09:58:12;;;;;;;42.20;7.50;;;20.40;95.90;;;;;;5014358;28;20481;-65
2022/09/08 10:01:09;;;;;;;25.27;5.07;;;20.30;96.20;;;;;;5040865;28;21058;-64
2022/09/08 10:03:53;;;;;;;26.90;7.90;;;;;;;;;;5036198;28;21124;-64
2022/09/08 10:06:35;;;;;;;11.83;4.73;;;20.40;95.90;;;;;;5049156;28;20475;-64
2022/09/08 10:09:36;;;;;;;28.10;6.20;;;20.60;96.50;;;;;;5028418;28;20486;-65
2022/09/08 10:12:40;;;;;;;25.63;6.73;;;20.80;95.60;;;;;;5049816;28;20512;-65
2022/09/08 10:15:29;;;;;;;17.67;6.70;;;;;;;;;;5040323;28;20479;-63
2022/09/08 10:18:36;;;;;;;31.70;7.70;;;20.80;95.40;;;;;;5053637;28;20975;-62
2022/09/08 10:21:30;;;;;;;23.13;7.20;;;20.50;94.70;;;;;;4969770;28;21356;-63
2022/09/08 10:24:07;;;;;;;24.23;6.13;;;;;;;;;;4962580;28;20486;-64
2022/09/08 10:27:07;;;;;;;11.93;5.90;;;20.40;95.90;;;;;;5016570;28;21019;-63
2022/09/08 10:29:46;;;;;;;13.53;7.50;;;;;;;;;;4951161;28;20489;-63
2022/09/08 10:32:41;;;;;;;15.20;4.87;;;20.20;95.60;;;;;;5034434;28;21271;-63
2022/09/08 10:35:37;;;;;;;22.83;5.53;;;20.20;96.30;;;;;;5040000;28;20472;-64
2022/09/08 10:38:40;;;;;;;15.90;5.00;;;20.20;96.50;;;;;;5027878;28;20472;-64
2022/09/08 10:41:56;;;;;;;13.30;6.30;;;20.30;96.60;;;;;;5029273;28;20472;-61
2022/09/08 10:44:50;;;;;;;27.03;9.60;;;20.70;96.80;;;;;;5048813;28;21064;-62
2022/09/08 10:47:54;;;;;;;18.07;5.63;;;21.20;96.80;;;;;;5044789;28;20669;-64
2022/09/08 10:50:23;;;;;;;10.20;4.77;;;21.30;96.20;;;;;;5044214;28;20466;-64
2022/09/08 10:53:15;;;;;;;5.20;3.97;;;21.10;95.90;;;;;;5050542;28;20579;-63
2022/09/08 10:55:58;;;;;;;14.63;3.63;;;;;;;;;;5044605;28;20746;-67
2022/09/08 10:59:00;;;;;;;16.90;6.27;;;20.60;95.30;;;;;;5033127;28;20555;-65
2022/09/08 11:02:12;;;;;;;11.20;5.53;;;20.70;96.50;;;;;;5050856;28;20836;-62
2022/09/08 11:05:06;;;;;;;29.80;5.57;;;;;;;;;;5024198;28;20477;-65
2022/09/08 11:08:19;;;;;;;16.80;5.97;;;21.50;95.40;;;;;;5052230;28;20476;-67
2022/09/08 11:10:57;;;;;;;13.00;3.10;;;;;;;;;;5013454;28;20532;-64
2022/09/08 11:13:31;;;;;;;20.37;5.70;;;22.30;94.80;;;;;;5047791;28;20463;-65
2022/09/08 11:16:28;;;;;;;8.73;4.43;;;22.40;94.10;;;;;;5047406;28;20540;-65
2022/09/08 11:19:09;;;;;;;6.77;4.27;;;22.70;94.20;;;;;;5046360;28;20483;-62
2022/09/08 11:21:46;;;;;;;21.23;4.63;;;22.50;92.90;;;;;;5050934;28;20922;-65
2022/09/08 11:24:24;;;;;;;11.90;4.23;;;22.00;91.30;;;;;;5048819;28;20493;-67
2022/09/08 11:27:01;;;;;;;22.53;4.50;;;21.70;92.00;;;;;;5023526;28;21058;-64
2022/09/08 11:29:34;;;;;;;17.47;7.80;;;21.50;91.00;;;;;;5030183;28;20478;-67
2022/09/08 11:32:14;;;;;;;24.20;5.20;;;21.50;93.50;;;;;;5030300;28;20493;-68
2022/09/08 11:34:47;;;;;;;31.80;7.33;;;;;;;;;;5038315;28;20801;-68
2022/09/08 11:37:49;;;;;;;47.30;9.63;;;21.50;92.60;;;;;;5023249;28;20844;-68
2022/09/08 11:40:44;;;;;;;74.17;10.40;;;21.60;93.30;;;;;;5041827;28;20471;-62
2022/09/08 11:43:35;;;;;;;43.13;7.90;;;21.70;92.90;;;;;;5025305;28;20472;-68
2022/09/08 11:46:17;;;;;;;10.50;5.00;;;21.60;92.40;;;;;;5028958;28;21048;-65
2022/09/08 11:49:16;;;;;;;35.80;4.20;;;21.50;92.50;;;;;;5020220;28;20484;-69
2022/09/08 11:52:02;;;;;;;7.33;3.10;;;21.50;93.00;;;;;;5046265;28;20502;-64
2022/09/08 11:54:48;;;;;;;23.47;7.30;;;21.70;94.00;;;;;;5000125;28;20808;-65
2022/09/08 11:57:48;;;;;;;17.03;3.57;;;22.20;92.20;;;;;;5012493;28;21261;-63
2022/09/08 12:00:47;;;;;;;9.93;3.93;;;22.70;92.40;;;;;;5036061;28;20520;-63
2022/09/08 12:03:31;;;;;;;7.53;4.00;;;23.20;92.70;;;;;;5034945;28;20483;-64
2022/09/08 12:06:37;;;;;;;6.50;3.63;;;23.10;90.00;;;;;;5035867;28;21007;-64
2022/09/08 12:09:26;;;;;;;20.17;4.87;;;23.10;89.40;;;;;;4950137;28;20499;-67
2022/09/08 12:12:15;;;;;;;23.20;3.40;;;23.10;90.00;;;;;;5049510;28;20503;-65
2022/09/08 12:14:56;;;;;;;9.33;2.43;;;22.80;89.20;;;;;;5034454;28;20574;-64
2022/09/08 12:17:40;;;;;;;9.33;4.50;;;22.50;88.90;;;;;;5048861;28;20472;-67
2022/09/08 12:20:23;;;;;;;8.67;3.20;;;22.20;90.20;;;;;;5048010;28;20534;-64
2022/09/08 12:23:17;;;;;;;14.40;3.80;;;21.90;90.30;;;;;;5048355;28;20467;-68
2022/09/08 12:25:55;;;;;;;2.60;2.20;;;21.70;90.90;;;;;;5049294;28;20464;-64
2022/09/08 12:28:53;;;;;;;14.53;4.70;;;21.60;91.50;;;;;;5039514;28;20597;-65
2022/09/08 12:31:32;;;;;;;9.83;3.87;;;21.50;91.00;;;;;;5040391;28;20464;-64
2022/09/08 12:34:22;;;;;;;26.70;4.23;;;21.20;92.20;;;;;;5031754;28;20489;-65
2022/09/08 12:36:50;;;;;;;9.87;2.97;;;;;;;;;;5014510;28;21077;-69
2022/09/08 12:39:44;;;;;;;22.87;3.63;;;21.10;94.70;;;;;;5039361;28;20479;-62
2022/09/08 12:42:37;;;;;;;16.67;4.97;;;21.10;94.50;;;;;;5039717;28;20510;-61
2022/09/08 12:45:13;;;;;;;20.37;5.93;;;;;;;;;;5039438;28;20471;-65
2022/09/08 12:47:46;;;;;;;14.90;2.60;;;;;;;;;;5036400;28;20491;-64
2022/09/08 12:50:34;;;;;;;18.60;5.20;;;21.80;94.80;;;;;;5048032;28;20478;-64
2022/09/08 12:53:21;;;;;;;16.83;6.07;;;21.80;93.80;;;;;;5049054;28;20464;-61
2022/09/08 12:55:53;;;;;;;10.20;2.90;;;;;;;;;;5043998;28;20476;-68
2022/09/08 12:58:23;;;;;;;21.87;5.90;;;22.10;93.80;;;;;;5049611;28;20487;-66
2022/09/08 13:00:57;;;;;;;20.63;4.77;;;22.10;93.40;;;;;;5049472;28;20487;-66
2022/09/08 13:03:35;;;;;;;31.33;8.33;;;22.00;92.70;;;;;;5035154;28;21046;-63
2022/09/08 13:06:26;;;;;;;76.53;10.47;;;22.00;92.40;;;;;;5045327;28;20475;-66
2022/09/08 13:09:00;;;;;;;66.53;9.07;;;22.10;92.80;;;;;;5048444;28;20482;-68
2022/09/08 13:11:38;;;;;;;100.93;16.77;;;;;;;;;;5049574;28;21239;-65
2022/09/08 13:14:06;;;;;;;14.80;6.47;;;;;;;;;;5048320;28;20570;-66
2022/09/08 13:16:44;;;;;;;22.23;6.60;;;22.10;92.40;;;;;;5043682;28;20502;-70
2022/09/08 13:19:21;;;;;;;12.23;3.60;;;22.30;91.30;;;;;;5040008;28;20589;-66
2022/09/08 13:22:06;;;;;;;7.07;2.63;;;;;;;;;;5048021;28;20482;-64
2022/09/08 13:24:38;;;;;;;11.20;5.70;;;;;;;;;;5042581;28;20862;-64
2022/09/08 13:27:13;;;;;;;11.50;5.57;;;;;;;;;;5036805;28;21143;-67
2022/09/08 13:29:56;;;;;;;22.77;3.93;;;21.70;90.00;;;;;;5041498;28;20559;-67
2022/09/08 13:32:37;;;;;;;11.93;5.60;;;21.70;90.70;;;;;;5049046;28;20469;-64
2022/09/08 13:35:23;;;;;;;18.23;4.23;;;21.70;92.00;;;;;;5049919;28;20471;-66
2022/09/08 13:38:17;;;;;;;24.90;4.07;;;21.50;91.30;;;;;;5034765;28;21063;-67
2022/09/08 13:40:50;;;;;;;14.50;3.40;;;;;;;;;;5049096;28;20869;-66
2022/09/08 13:43:26;;;;;;;16.43;4.03;;;;;;;;;;5024749;28;20672;-62
2022/09/08 13:46:11;;;;;;;16.63;4.67;;;21.30;91.20;;;;;;5042444;28;20766;-62
2022/09/08 13:48:56;;;;;;;11.70;4.23;;;21.20;91.30;;;;;;5041109;28;20996;-62
2022/09/08 13:51:33;;;;;;;16.20;6.13;;;21.10;91.50;;;;;;5033761;28;20478;-64
2022/09/08 13:54:22;;;;;;;21.07;5.53;;;21.10;91.40;;;;;;5007037;28;20465;-64
2022/09/08 13:56:58;;;;;;;16.33;2.90;;;;;;;;;;5005684;28;20484;-66